Prospect Creek, Prospect Cree, AK

4:16 PM AKDT on July 28, 2016 (GMT -0800)
Bettles | | Change Station

Elev 643 ft 66.91 °N, 151.53 °W | Updated 23 minutes ago

Overcast
Overcast
59 °F
Feels Like 59 °F
N
10
Wind Variable Wind from SSW

Today
High -- | Low -- °F
--% Chance of Precip.
Yesterday
High -- | Low -- °F
Precip. -- in
Pressure 29.75 in
Visibility 10.0 miles
Clouds Scattered Clouds 2400 ft
Mostly Cloudy 6000 ft
Overcast 7500 ft
Dew Point 50 °F
Humidity 72%
Rainfall 0.00 in
Snow Depth Not available.
4:23 AM 11:51 PM
Waning Crescent, 27% visible
METAR PABT 282353Z 21009KT 10SM SCT024 BKN060 OVC075 15/10 A2973 RMK AO2 RAE12 SLP074 SHRA DSNT N AND VC W P0000 60000 T01500100 10161 20144 58001
Pressure 29.75 in
Visibility 10.0 miles
Clouds Scattered Clouds 2400 ft
Mostly Cloudy 6000 ft
Overcast 7500 ft
Dew Point 50 °F
Humidity 72%
Rainfall 0.00 in
Snow Depth Not available.
4:23 AM 11:51 PM
Waning Crescent, 27% visible
METAR PABT 282353Z 21009KT 10SM SCT024 BKN060 OVC075 15/10 A2973 RMK AO2 RAE12 SLP074 SHRA DSNT N AND VC W P0000 60000 T01500100 10161 20144 58001

10-Day Weather Forecast

Almanac

Astronomy

Jul. 28, 2016 Rise Set
Actual Time
Civil Twilight
Nautical Twilight
Astronomical Twilight
Moon
Length of Visible Light
Length of Day
Tomorrow will be .
, % of the Moon is Illuminated

Today's Extremes

State Highs State Lows

Community

WunderPhotos

Upload Photos

1,928,239 photos uploaded!

WunderBlog® & News

Nearby

Air Quality

  Air Quality AQ Index Pollutant
Not available.

Snow Depth

Station Depth Elevation

Earthquake Activity

City Distance Mag. Time & Date
Minimum magnitude displayed is 2.5.

Coastal Water Temperatures

Place Temperature

Stations

Nearby Weather Stations

Station Location Temp. Windchill Dew Point Humidity Wind Precip. Elev Updated Type
                   

Watches & Warnings

There are currently no watches in effect.